createdAt,value
2022-11-03T00:02:18.131Z,71.30
2022-11-03T00:04:48.013Z,71.07
2022-11-03T00:07:24.806Z,70.83
2022-11-03T00:09:54.056Z,70.45
2022-11-03T00:12:22.929Z,70.75
2022-11-03T00:14:52.722Z,71.62
2022-11-03T00:17:21.854Z,72.39
2022-11-03T00:19:50.981Z,72.20
2022-11-03T00:22:20.162Z,72.66
2022-11-03T00:24:49.375Z,72.77
2022-11-03T00:27:18.518Z,72.69
2022-11-03T00:29:47.463Z,72.73
2022-11-03T00:32:16.626Z,72.14
2022-11-03T00:34:45.896Z,71.97
2022-11-03T00:37:14.869Z,72.01
2022-11-03T00:39:44.087Z,72.16
2022-11-03T00:42:13.246Z,72.20
2022-11-03T00:44:42.816Z,72.96
2022-11-03T00:47:11.924Z,74.02
2022-11-03T00:49:40.814Z,74.01
2022-11-03T00:52:10.082Z,73.75
2022-11-03T00:54:39.362Z,74.06
2022-11-03T00:57:08.670Z,73.73
2022-11-03T00:59:38.191Z,74.18
2022-11-03T01:02:07.504Z,73.95
2022-11-03T01:04:56.742Z,74.21
2022-11-03T01:07:30.572Z,74.10
2022-11-03T01:10:00.583Z,74.49
2022-11-03T01:12:33.245Z,73.81
2022-11-03T01:15:03.323Z,74.07
2022-11-03T01:17:34.148Z,74.12
2022-11-03T01:20:03.654Z,74.51
2022-11-03T01:22:33.050Z,74.41
2022-11-03T01:25:02.991Z,74.70
2022-11-03T01:27:32.895Z,74.33
2022-11-03T01:30:03.208Z,74.20
2022-11-03T01:32:32.910Z,74.71
2022-11-03T01:35:02.819Z,74.91
2022-11-03T01:37:32.301Z,75.72
2022-11-03T01:40:01.876Z,75.68
2022-11-03T01:42:31.787Z,75.61
2022-11-03T01:45:01.443Z,75.61
2022-11-03T01:47:34.900Z,75.56
2022-11-03T01:50:09.584Z,75.90
2022-11-03T01:53:06.287Z,75.41
2022-11-03T01:55:41.291Z,75.93
2022-11-03T01:58:19.160Z,75.70
2022-11-03T02:00:52.699Z,75.88
2022-11-03T02:03:23.823Z,75.64
2022-11-03T02:05:55.742Z,75.65
2022-11-03T02:08:37.658Z,75.42
2022-11-03T02:11:27.642Z,75.73
2022-11-03T02:13:57.209Z,74.91
2022-11-03T02:16:28.737Z,74.55
2022-11-03T02:19:00.965Z,75.31
2022-11-03T02:21:56.630Z,75.09
2022-11-03T02:25:02.881Z,74.25
2022-11-03T02:27:33.038Z,74.12
2022-11-03T02:30:02.758Z,73.46
2022-11-03T02:32:47.649Z,72.62
2022-11-03T02:35:17.696Z,71.94
2022-11-03T02:37:53.000Z,70.51
2022-11-03T02:40:31.448Z,69.12
2022-11-03T02:43:02.627Z,68.04
2022-11-03T02:45:33.013Z,66.52
2022-11-03T02:48:05.194Z,66.82
2022-11-03T02:50:36.705Z,66.54
2022-11-03T02:53:06.946Z,66.19
2022-11-03T02:55:39.137Z,66.56
2022-11-03T02:58:08.864Z,66.20
2022-11-03T03:00:52.039Z,65.88
2022-11-03T03:03:41.281Z,65.11
2022-11-03T03:06:15.432Z,65.29
2022-11-03T03:08:50.388Z,64.35
2022-11-03T03:11:38.799Z,64.61
2022-11-03T03:14:16.243Z,64.54
2022-11-03T03:17:11.083Z,64.25
2022-11-03T03:20:01.548Z,63.10
2022-11-03T03:22:35.113Z,62.54
2022-11-03T03:25:14.100Z,61.51
2022-11-03T03:27:49.053Z,61.90
2022-11-03T03:30:20.477Z,61.66
2022-11-03T03:32:52.621Z,60.15
2022-11-03T03:35:26.809Z,59.78
2022-11-03T03:38:03.400Z,59.05
2022-11-03T03:40:38.105Z,58.72
2022-11-03T03:43:12.053Z,58.42
2022-11-03T03:45:44.560Z,58.04
2022-11-03T03:48:15.340Z,57.62
2022-11-03T03:50:48.160Z,57.13
2022-11-03T03:53:21.355Z,56.74
2022-11-03T03:55:53.596Z,57.29
2022-11-03T03:58:23.762Z,56.04
2022-11-03T04:00:53.175Z,56.25
2022-11-03T04:03:26.512Z,56.06
2022-11-03T04:05:56.054Z,55.90
2022-11-03T04:08:25.580Z,55.37
2022-11-03T04:11:13.444Z,56.06
2022-11-03T04:14:01.341Z,56.17
2022-11-03T04:16:49.019Z,55.73
2022-11-03T04:19:39.247Z,54.14
2022-11-03T04:22:19.291Z,52.16
2022-11-03T04:24:51.567Z,52.10
2022-11-03T04:27:30.348Z,51.35
2022-11-03T04:30:17.597Z,51.20
2022-11-03T04:32:50.118Z,50.65
2022-11-03T04:35:28.023Z,50.16
2022-11-03T04:38:03.724Z,49.33
2022-11-03T04:40:34.389Z,49.22
2022-11-03T04:43:11.865Z,49.89
2022-11-03T04:45:41.290Z,48.46
2022-11-03T04:48:20.736Z,45.84
2022-11-03T04:50:53.447Z,45.54
2022-11-03T04:53:24.428Z,45.76
2022-11-03T04:55:55.726Z,46.25
2022-11-03T04:58:28.547Z,45.92
2022-11-03T05:01:04.298Z,45.36
2022-11-03T05:03:38.820Z,45.95
2022-11-03T05:06:21.196Z,45.30
2022-11-03T05:08:54.667Z,44.90
2022-11-03T05:11:40.255Z,44.74
2022-11-03T05:14:24.123Z,44.74
2022-11-03T05:16:55.453Z,43.91
2022-11-03T05:19:37.631Z,44.22
2022-11-03T05:22:07.464Z,44.18
2022-11-03T05:24:37.619Z,43.60
2022-11-03T05:27:14.012Z,43.49
2022-11-03T05:29:43.733Z,43.31
2022-11-03T05:32:34.950Z,41.10
2022-11-03T05:35:07.625Z,40.19
2022-11-03T05:37:37.478Z,39.41
2022-11-03T05:40:16.678Z,40.12
2022-11-03T05:42:48.388Z,40.79
2022-11-03T05:45:32.931Z,39.31
2022-11-03T05:48:28.213Z,38.59
2022-11-03T05:51:01.266Z,39.45
2022-11-03T05:53:39.688Z,39.81
2022-11-03T05:56:13.296Z,40.44
2022-11-03T05:58:45.939Z,39.73
2022-11-03T06:01:20.422Z,39.77
2022-11-03T06:03:49.883Z,39.70
2022-11-03T06:06:28.013Z,39.69
2022-11-03T06:09:04.324Z,39.58
2022-11-03T06:11:37.301Z,39.51
2022-11-03T06:14:34.277Z,39.30
2022-11-03T06:17:09.371Z,39.31
2022-11-03T06:19:50.973Z,39.56
2022-11-03T06:22:28.009Z,40.02
2022-11-03T06:25:37.698Z,40.66
2022-11-03T06:28:08.002Z,40.55
2022-11-03T06:33:22.391Z,39.87
2022-11-03T06:35:54.649Z,39.80
2022-11-03T06:38:31.522Z,39.59
2022-11-03T06:41:00.910Z,39.66
2022-11-03T06:43:43.910Z,38.93
2022-11-03T06:46:27.753Z,39.99
2022-11-03T06:49:02.546Z,39.28
2022-11-03T06:51:32.806Z,40.11
2022-11-03T06:54:04.300Z,41.10
2022-11-03T06:56:38.521Z,40.43
2022-11-03T06:59:12.016Z,39.83
2022-11-03T07:01:41.674Z,40.17
2022-11-03T07:04:22.242Z,39.15
2022-11-03T07:06:53.757Z,39.41
2022-11-03T07:09:27.557Z,39.04
2022-11-03T07:12:11.130Z,38.22
2022-11-03T07:14:45.449Z,38.57
2022-11-03T07:17:23.012Z,39.01
2022-11-03T07:19:53.488Z,37.87
2022-11-03T07:22:27.599Z,38.37
2022-11-03T07:25:05.359Z,37.99
2022-11-03T07:27:40.782Z,37.58
2022-11-03T07:30:10.047Z,37.99
2022-11-03T07:32:41.227Z,37.49
2022-11-03T07:35:19.635Z,37.55
2022-11-03T07:37:51.814Z,37.65
2022-11-03T07:40:25.187Z,37.50
2022-11-03T07:42:59.298Z,37.83
2022-11-03T07:45:40.797Z,37.15
2022-11-03T07:48:26.836Z,36.89
2022-11-03T07:51:02.391Z,36.62
2022-11-03T07:53:37.460Z,35.97
2022-11-03T07:56:26.402Z,36.10
2022-11-03T07:59:02.748Z,36.75
2022-11-03T08:02:20.069Z,37.00
2022-11-03T08:05:15.774Z,35.88
2022-11-03T08:10:52.701Z,36.56
2022-11-03T08:13:21.885Z,35.63
2022-11-03T08:15:50.862Z,35.78
2022-11-03T08:18:20.325Z,35.58
2022-11-03T08:20:49.376Z,36.31
2022-11-03T08:23:26.641Z,37.03
2022-11-03T08:25:56.908Z,35.29
2022-11-03T08:28:26.526Z,35.44
2022-11-03T08:30:56.587Z,35.90
2022-11-03T08:33:26.777Z,36.56
2022-11-03T08:35:56.394Z,36.71
2022-11-03T08:38:25.553Z,36.48
2022-11-03T08:40:56.391Z,36.28
2022-11-03T08:43:26.236Z,37.01
2022-11-03T08:45:55.561Z,36.08
2022-11-03T08:48:28.511Z,36.04
2022-11-03T08:50:57.690Z,35.71
2022-11-03T08:53:28.829Z,35.79
2022-11-03T08:55:58.593Z,36.08
2022-11-03T08:58:28.385Z,35.29
2022-11-03T09:00:57.400Z,35.42
2022-11-03T09:03:27.471Z,35.92
2022-11-03T09:05:57.613Z,35.65
2022-11-03T09:11:16.596Z,35.20
2022-11-03T09:13:46.063Z,35.02
2022-11-03T09:16:15.033Z,33.98
2022-11-03T09:18:46.696Z,34.44
2022-11-03T09:21:16.332Z,35.07
2022-11-03T09:23:45.895Z,35.87
2022-11-03T09:26:16.149Z,36.09
2022-11-03T09:28:46.561Z,35.26
2022-11-03T09:31:16.597Z,35.32
2022-11-03T09:34:22.550Z,36.16
2022-11-03T09:37:02.299Z,35.97
2022-11-03T09:39:31.589Z,36.07
2022-11-03T09:42:01.901Z,36.86
2022-11-03T09:44:35.702Z,37.21
2022-11-03T09:47:08.216Z,38.38
2022-11-03T09:49:38.122Z,39.87
2022-11-03T09:52:07.433Z,40.00
2022-11-03T09:55:01.020Z,39.63
2022-11-03T09:57:30.787Z,39.77
2022-11-03T10:00:00.128Z,40.15
2022-11-03T10:02:32.450Z,40.78
2022-11-03T10:05:09.804Z,40.09
2022-11-03T10:07:40.617Z,39.87
2022-11-03T10:10:20.308Z,40.65
2022-11-03T10:13:14.576Z,39.62
2022-11-03T10:15:44.169Z,40.13
2022-11-03T10:18:50.545Z,39.99
2022-11-03T10:21:22.051Z,40.29
2022-11-03T10:23:57.799Z,40.55
2022-11-03T10:26:27.224Z,40.08
2022-11-03T10:29:07.638Z,40.47
2022-11-03T10:31:41.579Z,40.69
2022-11-03T10:34:35.693Z,40.27
2022-11-03T10:37:26.205Z,40.70
2022-11-03T10:40:02.017Z,40.97
2022-11-03T10:42:35.837Z,40.60
2022-11-03T10:45:23.019Z,40.45
2022-11-03T10:48:03.288Z,41.00
2022-11-03T10:50:32.933Z,42.08
2022-11-03T10:53:02.980Z,41.29
2022-11-03T10:55:32.703Z,41.53
2022-11-03T10:58:40.600Z,41.75
2022-11-03T11:01:12.560Z,41.89
2022-11-03T11:03:46.468Z,42.43
2022-11-03T11:06:30.921Z,40.44
2022-11-03T11:09:07.042Z,41.13
2022-11-03T11:11:39.564Z,42.02
2022-11-03T11:14:24.629Z,42.31
2022-11-03T11:17:01.323Z,42.99
2022-11-03T11:19:31.701Z,43.70
2022-11-03T11:22:02.839Z,43.98
2022-11-03T11:24:52.092Z,44.22
2022-11-03T11:27:33.375Z,44.74
2022-11-03T11:30:06.138Z,44.52
2022-11-03T11:32:44.094Z,45.22
2022-11-03T11:35:26.253Z,44.57
2022-11-03T11:37:55.951Z,46.57
2022-11-03T11:40:28.162Z,46.45
2022-11-03T11:43:02.819Z,46.81
2022-11-03T11:46:25.894Z,46.42
2022-11-03T11:49:18.273Z,46.83
2022-11-03T11:51:48.137Z,46.90
2022-11-03T11:54:20.814Z,48.86
2022-11-03T11:56:51.590Z,50.40
2022-11-03T11:59:26.264Z,51.80
2022-11-03T12:01:58.382Z,53.07
2022-11-03T12:04:32.077Z,52.32
2022-11-03T12:07:01.670Z,51.18
2022-11-03T12:09:30.861Z,49.78
2022-11-03T12:12:08.316Z,50.17
2022-11-03T12:14:40.188Z,50.03
2022-11-03T12:17:18.336Z,50.28
2022-11-03T12:19:49.780Z,50.31
2022-11-03T12:22:25.137Z,51.23
2022-11-03T12:25:01.815Z,52.09
2022-11-03T12:27:30.816Z,52.82
2022-11-03T12:30:02.041Z,52.67
2022-11-03T12:32:33.565Z,52.08
2022-11-03T12:35:05.488Z,51.72
2022-11-03T12:37:34.593Z,51.62
2022-11-03T12:40:03.898Z,52.03
2022-11-03T12:42:33.114Z,52.28
2022-11-03T12:45:02.610Z,52.65
2022-11-03T12:47:31.784Z,52.88
2022-11-03T12:50:00.987Z,53.42
2022-11-03T12:52:30.043Z,53.80
2022-11-03T12:54:58.935Z,54.69
2022-11-03T12:57:28.935Z,54.54
2022-11-03T12:59:57.880Z,55.00
2022-11-03T13:02:27.013Z,56.25
2022-11-03T13:04:56.348Z,56.20
2022-11-03T13:07:30.377Z,55.88
2022-11-03T13:10:02.743Z,56.45
2022-11-03T13:12:37.934Z,55.55
2022-11-03T13:15:09.605Z,55.51
2022-11-03T13:18:07.179Z,56.83
2022-11-03T13:20:28.576Z,56.94
2022-11-03T13:22:57.606Z,57.31
2022-11-03T13:25:27.502Z,56.61
2022-11-03T13:27:58.223Z,57.15
2022-11-03T13:30:28.560Z,56.97
2022-11-03T13:32:57.986Z,57.80
2022-11-03T13:35:27.145Z,57.79
2022-11-03T13:37:56.678Z,57.92
2022-11-03T13:43:14.844Z,58.31
2022-11-03T13:45:44.032Z,58.33
2022-11-03T13:51:03.032Z,58.68
2022-11-03T13:56:22.663Z,60.57
2022-11-03T14:01:42.440Z,60.36
2022-11-03T14:07:00.937Z,59.96
2022-11-03T14:09:30.656Z,59.93
2022-11-03T14:12:18.346Z,60.21
2022-11-03T14:14:47.557Z,60.48
2022-11-03T14:17:16.380Z,60.00
2022-11-03T14:19:50.383Z,59.44
2022-11-03T14:22:26.032Z,57.57
2022-11-03T14:24:55.214Z,57.44
2022-11-03T14:27:24.383Z,57.69
2022-11-03T14:29:53.717Z,57.61
2022-11-03T14:32:23.164Z,58.07
2022-11-03T14:34:52.547Z,59.18
2022-11-03T14:37:22.013Z,58.85
2022-11-03T14:39:51.352Z,59.21
2022-11-03T14:42:20.499Z,59.78
2022-11-03T14:44:50.448Z,60.21
2022-11-03T14:47:22.803Z,60.76
2022-11-03T14:49:52.214Z,61.37
2022-11-03T14:52:21.782Z,61.86
2022-11-03T14:54:52.114Z,62.30
2022-11-03T14:57:22.269Z,62.73
2022-11-03T14:59:53.610Z,62.11
2022-11-03T15:02:23.822Z,62.75
2022-11-03T15:04:53.065Z,63.75
2022-11-03T15:07:22.422Z,64.08
2022-11-03T15:09:54.322Z,64.26
2022-11-03T15:12:23.823Z,64.31
2022-11-03T15:14:53.726Z,64.79
2022-11-03T15:17:23.112Z,65.29
2022-11-03T15:19:53.008Z,65.57
2022-11-03T15:27:47.290Z,65.74
2022-11-03T15:30:17.768Z,65.17
2022-11-03T15:32:47.142Z,65.05
2022-11-03T15:35:16.670Z,65.41
2022-11-03T15:37:46.685Z,65.57
2022-11-03T15:40:18.432Z,66.15
2022-11-03T15:42:49.291Z,65.71
2022-11-03T15:45:19.160Z,65.85
2022-11-03T15:47:48.841Z,66.09
2022-11-03T15:50:18.322Z,66.53
2022-11-03T15:52:48.070Z,66.83
2022-11-03T15:55:17.666Z,67.54
2022-11-03T15:57:47.157Z,68.39
2022-11-03T16:00:16.951Z,68.71
2022-11-03T16:02:48.472Z,68.87
2022-11-03T16:05:24.797Z,68.56
2022-11-03T16:07:55.122Z,68.72
2022-11-03T16:10:25.670Z,68.73
2022-11-03T16:12:55.629Z,68.76
2022-11-03T16:15:24.954Z,68.89
2022-11-03T16:17:54.321Z,68.94
2022-11-03T16:20:23.768Z,69.28
2022-11-03T16:25:27.487Z,68.35
2022-11-03T16:27:56.798Z,67.94
2022-11-03T16:30:26.329Z,68.25
2022-11-03T16:32:56.000Z,68.22
2022-11-03T16:35:26.157Z,68.11
2022-11-03T16:37:55.563Z,67.85
2022-11-03T16:40:25.195Z,67.48
2022-11-03T16:42:55.744Z,67.14
2022-11-03T16:45:34.880Z,67.40
2022-11-03T16:48:06.681Z,67.59
2022-11-03T16:50:40.192Z,67.36
2022-11-03T16:53:12.498Z,67.58
2022-11-03T16:55:42.084Z,67.68
2022-11-03T16:58:11.591Z,68.49
2022-11-03T17:00:41.041Z,68.61
2022-11-03T17:03:11.107Z,68.29
2022-11-03T17:05:40.558Z,67.99
2022-11-03T17:08:31.654Z,67.90
2022-11-03T17:10:59.590Z,68.15
2022-11-03T17:13:29.752Z,68.04
2022-11-03T17:15:58.974Z,68.00
2022-11-03T17:18:28.314Z,68.05
2022-11-03T17:20:57.561Z,67.83
2022-11-03T17:23:26.772Z,68.12
2022-11-03T17:25:58.583Z,67.99
2022-11-03T17:28:30.875Z,67.98
2022-11-03T17:31:00.972Z,67.91
2022-11-03T17:33:30.391Z,68.33
2022-11-03T17:35:59.788Z,68.60
2022-11-03T17:38:29.990Z,69.23
2022-11-03T17:40:59.013Z,69.30
2022-11-03T17:43:31.152Z,69.25
2022-11-03T17:46:00.121Z,69.19
2022-11-03T17:48:29.288Z,69.15
2022-11-03T17:50:59.136Z,68.95
2022-11-03T17:53:35.247Z,69.26
2022-11-03T17:58:54.610Z,69.33
2022-11-03T18:01:26.379Z,69.36
2022-11-03T18:03:55.644Z,69.19
2022-11-03T18:06:24.562Z,68.81
2022-11-03T18:08:54.508Z,68.95
2022-11-03T18:11:48.226Z,68.67
2022-11-03T18:14:18.143Z,68.78
2022-11-03T18:16:47.844Z,68.81
2022-11-03T18:19:19.000Z,68.61
2022-11-03T18:21:49.155Z,69.23
2022-11-03T18:24:21.322Z,69.73
2022-11-03T18:26:50.445Z,69.77
2022-11-03T18:29:19.615Z,69.94
2022-11-03T18:31:51.323Z,69.97
2022-11-03T18:34:26.841Z,70.03
2022-11-03T18:36:56.255Z,69.87
2022-11-03T18:39:29.137Z,69.94
2022-11-03T18:41:58.213Z,70.02
2022-11-03T18:44:31.725Z,70.31
2022-11-03T18:47:00.937Z,70.38
2022-11-03T18:49:34.271Z,70.46
2022-11-03T18:52:08.048Z,70.60
2022-11-03T18:54:37.488Z,70.69
2022-11-03T18:57:06.402Z,70.96
2022-11-03T18:59:38.780Z,71.07
2022-11-03T19:02:20.116Z,70.44
2022-11-03T19:04:49.627Z,71.19
2022-11-03T19:07:27.320Z,71.25
2022-11-03T19:09:57.005Z,71.32
2022-11-03T19:12:25.894Z,71.20
2022-11-03T19:14:55.938Z,71.20
2022-11-03T19:17:26.539Z,70.98
2022-11-03T19:19:55.742Z,70.60
2022-11-03T19:22:25.495Z,70.68
2022-11-03T19:24:55.007Z,71.06
2022-11-03T19:27:29.959Z,71.22
2022-11-03T19:30:01.699Z,71.74
2022-11-03T19:32:35.198Z,72.20
2022-11-03T19:35:15.641Z,72.43
2022-11-03T19:37:44.936Z,72.09
2022-11-03T19:40:19.623Z,72.33
2022-11-03T19:42:51.051Z,72.12
2022-11-03T19:45:21.736Z,71.77
2022-11-03T19:48:22.326Z,72.33
2022-11-03T19:50:46.611Z,72.52
2022-11-03T19:53:34.229Z,71.85
2022-11-03T19:56:03.611Z,72.03
2022-11-03T19:58:32.468Z,72.44
2022-11-03T20:01:07.268Z,72.22
2022-11-03T20:03:38.496Z,71.71
2022-11-03T20:06:09.244Z,72.17
2022-11-03T20:08:39.476Z,71.55
2022-11-03T20:11:08.677Z,72.15
2022-11-03T20:13:45.181Z,71.94
2022-11-03T20:16:18.712Z,71.07
2022-11-03T20:18:49.836Z,71.72
2022-11-03T20:21:21.020Z,71.33
2022-11-03T20:23:52.118Z,71.41
2022-11-03T20:26:23.972Z,71.50
2022-11-03T20:28:55.319Z,72.04
2022-11-03T20:31:24.294Z,71.77
2022-11-03T20:33:53.186Z,71.81
2022-11-03T20:36:22.527Z,72.04
2022-11-03T20:39:02.138Z,72.05
2022-11-03T20:41:32.487Z,71.91
2022-11-03T20:44:01.737Z,71.85
2022-11-03T20:46:33.964Z,72.05
2022-11-03T20:49:03.036Z,72.47
2022-11-03T20:51:38.174Z,73.27
2022-11-03T20:54:21.887Z,73.46
2022-11-03T20:56:51.189Z,73.02
2022-11-03T20:59:24.133Z,73.44
2022-11-03T21:01:54.285Z,74.10
2022-11-03T21:04:23.715Z,73.94
2022-11-03T21:06:52.730Z,74.19
2022-11-03T21:09:22.437Z,74.33
2022-11-03T21:11:53.771Z,74.77
2022-11-03T21:14:27.254Z,75.08
2022-11-03T21:17:15.020Z,75.16
2022-11-03T21:20:02.611Z,75.13
2022-11-03T21:22:56.400Z,75.64
2022-11-03T21:25:26.025Z,75.21
2022-11-03T21:27:55.896Z,75.21
2022-11-03T21:30:25.292Z,75.24
2022-11-03T21:32:54.197Z,75.39
2022-11-03T21:35:23.989Z,75.24
2022-11-03T21:37:52.919Z,75.59
2022-11-03T21:40:21.981Z,75.59
2022-11-03T21:43:09.647Z,75.46
2022-11-03T21:45:38.862Z,75.36
2022-11-03T21:48:26.574Z,75.20
2022-11-03T21:50:55.723Z,75.67
2022-11-03T21:53:24.579Z,75.47
2022-11-03T21:55:54.611Z,75.73
2022-11-03T21:58:23.793Z,75.71
2022-11-03T22:00:53.124Z,75.61
2022-11-03T22:03:22.416Z,75.31
2022-11-03T22:05:51.440Z,75.37
2022-11-03T22:08:20.555Z,75.47
2022-11-03T22:10:49.640Z,75.66
2022-11-03T22:13:18.756Z,76.01
2022-11-03T22:16:06.077Z,75.48
2022-11-03T22:18:35.856Z,75.04
2022-11-03T22:21:23.442Z,74.61
2022-11-03T22:24:10.803Z,74.72
2022-11-03T22:26:58.359Z,74.78
2022-11-03T22:29:46.134Z,74.86
2022-11-03T22:32:16.492Z,74.86
2022-11-03T22:35:03.912Z,75.29
2022-11-03T22:40:18.953Z,75.48
2022-11-03T22:43:06.603Z,75.79
2022-11-03T22:45:56.264Z,76.08
2022-11-03T22:48:28.772Z,76.42
2022-11-03T22:51:23.674Z,75.78
2022-11-03T22:54:11.791Z,76.45
2022-11-03T22:56:41.672Z,77.43
2022-11-03T22:59:10.900Z,77.17
2022-11-03T23:01:40.305Z,77.28
2022-11-03T23:04:09.556Z,77.22
2022-11-03T23:06:41.886Z,77.63
2022-11-03T23:09:12.945Z,77.54
2022-11-03T23:11:42.494Z,77.82
2022-11-03T23:14:12.640Z,77.68
2022-11-03T23:16:44.302Z,77.66
2022-11-03T23:19:33.888Z,77.81
2022-11-03T23:22:03.098Z,77.87
2022-11-03T23:24:50.375Z,78.15
2022-11-03T23:27:19.549Z,78.15
2022-11-03T23:29:48.622Z,78.25
2022-11-03T23:32:17.998Z,78.51
2022-11-03T23:34:46.830Z,78.59
2022-11-03T23:37:16.130Z,78.54
2022-11-03T23:39:45.113Z,78.41
2022-11-03T23:42:14.410Z,78.90
2022-11-03T23:45:01.764Z,78.85
2022-11-03T23:47:49.224Z,78.97
2022-11-03T23:50:18.343Z,78.83
2022-11-03T23:52:47.462Z,78.68
2022-11-03T23:55:16.522Z,79.25
2022-11-03T23:58:04.146Z,79.18
